Main page
Satellite images 15-day forecastsClimateMarine weather Cyclones Lightning AirportsFAQ Newsletter About
Weather : Europe Africa North America South America Asia Australia-Oceania Others
Languages Contact

Bauru, São Paulo, Brazil

latitude: 22-19S, longitude: 049-04W, elevation: 590 m


METAR: SBBU 241600Z 33008KT 9999 SCT045 33/22 Q1015
TAF: missing

Time: 14:49 (16:49 UTC)

Current weather observation

The report was made 49 minutes ago, at 16:00 UTC
Wind 8 kt from the North/Northwest
Temperature 33°C
Humidity 53%
Pressure 1015 hPa
Visibility 10 km or more
Scattered clouds at a height of 4500 ft

Change units
The information on this site is subject to a disclaimer
Weather : Europe Africa North America South America Asia Australia-Oceania Others
Satellite images 15-day forecastsClimateMarine weather Cyclones Lightning AirportsFAQ Languages Contact Newsletter About